sensor_id;sensor_type;location;lat;lon;timestamp;pressure;altitude;pressure_sealevel;temperature;humidity
13027;BME280;6580;42.680;23.324;2023-04-27T00:00:00;94969.56;;;10.20;55.75
13027;BME280;6580;42.680;23.324;2023-04-27T00:02:46;94966.47;;;10.24;55.31
13027;BME280;6580;42.680;23.324;2023-04-27T00:05:34;94967.81;;;10.36;54.60
13027;BME280;6580;42.680;23.324;2023-04-27T00:08:19;94968.31;;;10.32;54.62
13027;BME280;6580;42.680;23.324;2023-04-27T00:11:05;94972.09;;;10.21;54.79
13027;BME280;6580;42.680;23.324;2023-04-27T00:13:51;94978.25;;;10.22;54.89
13027;BME280;6580;42.680;23.324;2023-04-27T00:16:39;94969.72;;;10.10;54.73
13027;BME280;6580;42.680;23.324;2023-04-27T00:19:24;94976.84;;;10.02;55.57
13027;BME280;6580;42.680;23.324;2023-04-27T00:22:16;94971.09;;;9.81;56.16
13027;BME280;6580;42.680;23.324;2023-04-27T00:25:01;94982.78;;;9.96;55.89
13027;BME280;6580;42.680;23.324;2023-04-27T00:27:46;94988.00;;;10.06;55.98
13027;BME280;6580;42.680;23.324;2023-04-27T00:30:34;94979.19;;;10.05;55.29
13027;BME280;6580;42.680;23.324;2023-04-27T00:33:21;94982.09;;;9.94;55.46
13027;BME280;6580;42.680;23.324;2023-04-27T00:36:07;94982.38;;;9.83;56.17
13027;BME280;6580;42.680;23.324;2023-04-27T00:38:56;94975.66;;;9.63;56.42
13027;BME280;6580;42.680;23.324;2023-04-27T00:41:42;94981.97;;;9.62;56.90
13027;BME280;6580;42.680;23.324;2023-04-27T00:44:30;94968.44;;;9.56;56.86
13027;BME280;6580;42.680;23.324;2023-04-27T00:47:16;94980.22;;;9.53;56.77
13027;BME280;6580;42.680;23.324;2023-04-27T00:50:07;94976.06;;;9.51;57.11
13027;BME280;6580;42.680;23.324;2023-04-27T00:52:55;94984.00;;;9.43;57.20
13027;BME280;6580;42.680;23.324;2023-04-27T00:55:40;94980.66;;;9.41;57.98
13027;BME280;6580;42.680;23.324;2023-04-27T00:58:26;94979.31;;;9.37;57.69
13027;BME280;6580;42.680;23.324;2023-04-27T01:01:16;94984.94;;;9.34;57.93
13027;BME280;6580;42.680;23.324;2023-04-27T01:04:03;94991.25;;;9.33;57.29
13027;BME280;6580;42.680;23.324;2023-04-27T01:06:51;95000.25;;;9.14;58.11
13027;BME280;6580;42.680;23.324;2023-04-27T01:09:39;94994.91;;;9.14;59.07
13027;BME280;6580;42.680;23.324;2023-04-27T01:12:26;94993.53;;;9.28;58.30
13027;BME280;6580;42.680;23.324;2023-04-27T01:15:11;95003.66;;;9.24;58.95
13027;BME280;6580;42.680;23.324;2023-04-27T01:18:00;95003.56;;;9.16;59.42
13027;BME280;6580;42.680;23.324;2023-04-27T01:20:48;95000.41;;;9.13;59.00
13027;BME280;6580;42.680;23.324;2023-04-27T01:23:46;95004.94;;;9.20;58.90
13027;BME280;6580;42.680;23.324;2023-04-27T01:26:40;94994.78;;;9.16;59.31
13027;BME280;6580;42.680;23.324;2023-04-27T01:29:25;95008.16;;;9.07;59.28
13027;BME280;6580;42.680;23.324;2023-04-27T01:32:10;95003.16;;;9.04;59.40
13027;BME280;6580;42.680;23.324;2023-04-27T01:34:58;95006.56;;;8.96;59.35
13027;BME280;6580;42.680;23.324;2023-04-27T01:37:44;95006.66;;;8.87;59.77
13027;BME280;6580;42.680;23.324;2023-04-27T01:40:33;95010.00;;;8.89;60.26
13027;BME280;6580;42.680;23.324;2023-04-27T01:43:21;95018.06;;;8.79;59.98
13027;BME280;6580;42.680;23.324;2023-04-27T01:46:09;95020.16;;;8.93;59.77
13027;BME280;6580;42.680;23.324;2023-04-27T01:48:55;95010.44;;;8.84;60.39
13027;BME280;6580;42.680;23.324;2023-04-27T01:51:40;95016.81;;;9.08;59.26
13027;BME280;6580;42.680;23.324;2023-04-27T01:54:27;95015.91;;;8.83;59.31
13027;BME280;6580;42.680;23.324;2023-04-27T01:57:18;95017.44;;;8.68;59.75
13027;BME280;6580;42.680;23.324;2023-04-27T02:00:06;95018.56;;;8.83;59.81
13027;BME280;6580;42.680;23.324;2023-04-27T02:02:52;95016.72;;;8.83;59.32
13027;BME280;6580;42.680;23.324;2023-04-27T02:05:41;95021.00;;;8.76;59.74
13027;BME280;6580;42.680;23.324;2023-04-27T02:08:27;95025.41;;;8.68;60.79
13027;BME280;6580;42.680;23.324;2023-04-27T02:11:15;95023.44;;;8.70;60.16
13027;BME280;6580;42.680;23.324;2023-04-27T02:14:03;95023.28;;;8.71;60.13
13027;BME280;6580;42.680;23.324;2023-04-27T02:16:50;95023.50;;;8.78;60.03
13027;BME280;6580;42.680;23.324;2023-04-27T02:19:37;95027.22;;;8.67;59.00
13027;BME280;6580;42.680;23.324;2023-04-27T02:22:23;95022.66;;;8.60;58.73
13027;BME280;6580;42.680;23.324;2023-04-27T02:25:09;95031.00;;;8.65;59.36
13027;BME280;6580;42.680;23.324;2023-04-27T02:27:54;95030.78;;;8.76;58.91
13027;BME280;6580;42.680;23.324;2023-04-27T02:30:41;95026.63;;;8.73;58.89
13027;BME280;6580;42.680;23.324;2023-04-27T02:33:27;95026.38;;;8.67;59.05
13027;BME280;6580;42.680;23.324;2023-04-27T02:36:15;95028.66;;;8.62;58.90
13027;BME280;6580;42.680;23.324;2023-04-27T02:39:01;95029.88;;;8.50;59.82
13027;BME280;6580;42.680;23.324;2023-04-27T02:41:49;95036.16;;;8.66;58.52
13027;BME280;6580;42.680;23.324;2023-04-27T02:44:37;95031.59;;;8.59;58.80
13027;BME280;6580;42.680;23.324;2023-04-27T02:47:25;95036.84;;;8.51;58.35
13027;BME280;6580;42.680;23.324;2023-04-27T02:50:11;95030.25;;;8.55;58.74
13027;BME280;6580;42.680;23.324;2023-04-27T02:53:00;95041.63;;;8.65;58.61
13027;BME280;6580;42.680;23.324;2023-04-27T02:55:46;95040.13;;;8.62;58.72
13027;BME280;6580;42.680;23.324;2023-04-27T02:58:32;95035.50;;;8.64;58.65
13027;BME280;6580;42.680;23.324;2023-04-27T03:01:26;95046.84;;;8.57;58.02
13027;BME280;6580;42.680;23.324;2023-04-27T03:04:14;95032.34;;;8.51;58.92
13027;BME280;6580;42.680;23.324;2023-04-27T03:07:02;95042.84;;;8.70;58.15
13027;BME280;6580;42.680;23.324;2023-04-27T03:09:53;95025.16;;;8.44;58.21
13027;BME280;6580;42.680;23.324;2023-04-27T03:12:41;95039.56;;;8.59;58.43
13027;BME280;6580;42.680;23.324;2023-04-27T03:15:29;95042.84;;;8.70;57.85
13027;BME280;6580;42.680;23.324;2023-04-27T03:18:17;95052.59;;;8.52;58.56
13027;BME280;6580;42.680;23.324;2023-04-27T03:21:09;95054.16;;;8.55;57.89
13027;BME280;6580;42.680;23.324;2023-04-27T03:23:55;95061.72;;;8.50;58.02
13027;BME280;6580;42.680;23.324;2023-04-27T03:26:41;95063.09;;;8.54;58.04
13027;BME280;6580;42.680;23.324;2023-04-27T03:29:30;95069.00;;;8.48;57.84
13027;BME280;6580;42.680;23.324;2023-04-27T03:32:19;95071.53;;;8.40;58.28
13027;BME280;6580;42.680;23.324;2023-04-27T03:35:11;95067.84;;;8.50;58.39
13027;BME280;6580;42.680;23.324;2023-04-27T03:38:00;95081.56;;;8.46;58.97
13027;BME280;6580;42.680;23.324;2023-04-27T03:40:49;95080.69;;;8.55;58.23
13027;BME280;6580;42.680;23.324;2023-04-27T03:43:35;95075.56;;;8.44;58.63
13027;BME280;6580;42.680;23.324;2023-04-27T03:46:25;95079.41;;;8.32;58.78
13027;BME280;6580;42.680;23.324;2023-04-27T03:49:12;95077.63;;;8.50;58.44
13027;BME280;6580;42.680;23.324;2023-04-27T03:52:02;95088.53;;;8.47;58.58
13027;BME280;6580;42.680;23.324;2023-04-27T03:54:50;95085.31;;;8.53;58.32
13027;BME280;6580;42.680;23.324;2023-04-27T03:57:36;95092.66;;;8.59;58.25
13027;BME280;6580;42.680;23.324;2023-04-27T04:00:22;95079.25;;;8.60;57.58
13027;BME280;6580;42.680;23.324;2023-04-27T04:03:09;95094.19;;;8.79;56.79
13027;BME280;6580;42.680;23.324;2023-04-27T04:05:56;95099.03;;;8.66;58.22
13027;BME280;6580;42.680;23.324;2023-04-27T04:08:46;95103.31;;;8.94;56.95
13027;BME280;6580;42.680;23.324;2023-04-27T04:11:34;95102.94;;;8.89;57.15
13027;BME280;6580;42.680;23.324;2023-04-27T04:14:19;95108.81;;;9.09;57.09
13027;BME280;6580;42.680;23.324;2023-04-27T04:17:08;95111.97;;;9.13;55.36
13027;BME280;6580;42.680;23.324;2023-04-27T04:19:54;95106.66;;;8.78;56.31
13027;BME280;6580;42.680;23.324;2023-04-27T04:22:41;95107.88;;;8.57;57.11
13027;BME280;6580;42.680;23.324;2023-04-27T04:25:27;95118.19;;;8.87;55.45
13027;BME280;6580;42.680;23.324;2023-04-27T04:28:19;95121.97;;;8.67;56.92
13027;BME280;6580;42.680;23.324;2023-04-27T04:31:05;95126.63;;;8.82;56.21
13027;BME280;6580;42.680;23.324;2023-04-27T04:33:52;95123.22;;;8.90;55.96
13027;BME280;6580;42.680;23.324;2023-04-27T04:36:39;95142.63;;;8.90;55.96
13027;BME280;6580;42.680;23.324;2023-04-27T04:39:29;95131.25;;;8.98;54.89
13027;BME280;6580;42.680;23.324;2023-04-27T04:42:14;95133.50;;;8.93;55.51
13027;BME280;6580;42.680;23.324;2023-04-27T04:45:01;95131.41;;;9.13;54.55
13027;BME280;6580;42.680;23.324;2023-04-27T04:47:47;95140.34;;;9.12;54.09
13027;BME280;6580;42.680;23.324;2023-04-27T04:50:38;95148.72;;;9.17;54.51
13027;BME280;6580;42.680;23.324;2023-04-27T04:53:28;95145.66;;;9.47;53.93
13027;BME280;6580;42.680;23.324;2023-04-27T04:56:15;95148.94;;;9.41;53.82
13027;BME280;6580;42.680;23.324;2023-04-27T04:59:02;95155.75;;;8.92;54.58
13027;BME280;6580;42.680;23.324;2023-04-27T05:01:49;95162.59;;;8.94;55.46
13027;BME280;6580;42.680;23.324;2023-04-27T05:04:38;95160.63;;;9.31;54.66
13027;BME280;6580;42.680;23.324;2023-04-27T05:07:26;95162.91;;;9.43;53.92
13027;BME280;6580;42.680;23.324;2023-04-27T05:10:13;95166.84;;;9.74;53.63
13027;BME280;6580;42.680;23.324;2023-04-27T05:13:00;95162.28;;;9.49;53.05
13027;BME280;6580;42.680;23.324;2023-04-27T05:15:47;95170.13;;;9.33;54.12
13027;BME280;6580;42.680;23.324;2023-04-27T05:18:36;95174.69;;;9.58;53.28
13027;BME280;6580;42.680;23.324;2023-04-27T05:21:28;95166.06;;;9.82;53.09
13027;BME280;6580;42.680;23.324;2023-04-27T05:24:15;95163.91;;;9.85;52.59
13027;BME280;6580;42.680;23.324;2023-04-27T05:27:02;95168.25;;;10.04;52.17
13027;BME280;6580;42.680;23.324;2023-04-27T05:29:48;95173.94;;;9.91;52.35
13027;BME280;6580;42.680;23.324;2023-04-27T05:32:34;95174.31;;;9.96;52.65
13027;BME280;6580;42.680;23.324;2023-04-27T05:35:24;95173.06;;;10.00;52.46
13027;BME280;6580;42.680;23.324;2023-04-27T05:38:12;95177.91;;;10.05;51.74
13027;BME280;6580;42.680;23.324;2023-04-27T05:41:03;95171.22;;;9.83;53.10
13027;BME280;6580;42.680;23.324;2023-04-27T05:43:49;95176.41;;;9.67;53.17
13027;BME280;6580;42.680;23.324;2023-04-27T05:46:35;95181.38;;;9.62;54.24
13027;BME280;6580;42.680;23.324;2023-04-27T05:49:21;95179.34;;;9.82;54.04
13027;BME280;6580;42.680;23.324;2023-04-27T05:52:09;95181.50;;;9.78;54.42
13027;BME280;6580;42.680;23.324;2023-04-27T05:54:59;95179.63;;;9.96;54.16
13027;BME280;6580;42.680;23.324;2023-04-27T05:57:45;95176.84;;;10.23;53.81
13027;BME280;6580;42.680;23.324;2023-04-27T06:00:30;95187.06;;;10.35;52.65
13027;BME280;6580;42.680;23.324;2023-04-27T06:03:16;95163.09;;;10.27;53.76
13027;BME280;6580;42.680;23.324;2023-04-27T06:06:03;95175.91;;;10.32;53.74
13027;BME280;6580;42.680;23.324;2023-04-27T06:08:50;95186.22;;;10.60;51.97
13027;BME280;6580;42.680;23.324;2023-04-27T06:11:36;95172.50;;;10.81;51.79
13027;BME280;6580;42.680;23.324;2023-04-27T06:14:21;95185.66;;;10.82;52.56
13027;BME280;6580;42.680;23.324;2023-04-27T06:17:07;95183.06;;;11.06;50.83
13027;BME280;6580;42.680;23.324;2023-04-27T06:19:53;95182.94;;;11.15;51.48
13027;BME280;6580;42.680;23.324;2023-04-27T06:22:40;95174.72;;;11.66;49.63
13027;BME280;6580;42.680;23.324;2023-04-27T06:25:31;95181.69;;;11.51;49.40
13027;BME280;6580;42.680;23.324;2023-04-27T06:28:16;95170.25;;;11.91;48.59
13027;BME280;6580;42.680;23.324;2023-04-27T06:31:02;95167.69;;;12.21;47.77
13027;BME280;6580;42.680;23.324;2023-04-27T06:33:51;95165.94;;;12.60;46.97
13027;BME280;6580;42.680;23.324;2023-04-27T06:36:37;95164.41;;;12.65;46.24
13027;BME280;6580;42.680;23.324;2023-04-27T06:39:23;95161.63;;;13.35;45.55
13027;BME280;6580;42.680;23.324;2023-04-27T06:42:11;95157.50;;;14.00;43.06
13027;BME280;6580;42.680;23.324;2023-04-27T06:44:57;95153.19;;;15.08;41.24
13027;BME280;6580;42.680;23.324;2023-04-27T06:47:42;95113.91;;;15.92;38.80
13027;BME280;6580;42.680;23.324;2023-04-27T06:50:28;95144.22;;;17.23;37.23
13027;BME280;6580;42.680;23.324;2023-04-27T06:53:13;95133.50;;;17.89;35.48
13027;BME280;6580;42.680;23.324;2023-04-27T06:56:00;95129.00;;;18.67;33.90
13027;BME280;6580;42.680;23.324;2023-04-27T06:58:47;95139.97;;;18.98;33.36
13027;BME280;6580;42.680;23.324;2023-04-27T07:01:33;95142.41;;;16.90;35.48
13027;BME280;6580;42.680;23.324;2023-04-27T07:04:18;95135.66;;;16.18;36.91
13027;BME280;6580;42.680;23.324;2023-04-27T07:07:04;95141.22;;;15.25;37.98
13027;BME280;6580;42.680;23.324;2023-04-27T07:09:50;95136.53;;;15.41;38.62
13027;BME280;6580;42.680;23.324;2023-04-27T07:12:35;95138.56;;;15.39;38.65
13027;BME280;6580;42.680;23.324;2023-04-27T07:15:22;95128.34;;;16.12;37.90
13027;BME280;6580;42.680;23.324;2023-04-27T07:18:12;95141.06;;;16.45;37.03
13027;BME280;6580;42.680;23.324;2023-04-27T07:20:57;95126.34;;;15.58;38.07
13027;BME280;6580;42.680;23.324;2023-04-27T07:23:43;95133.94;;;15.33;38.16
13027;BME280;6580;42.680;23.324;2023-04-27T07:26:29;95143.03;;;15.04;38.75
13027;BME280;6580;42.680;23.324;2023-04-27T07:29:16;95136.84;;;14.89;39.23
13027;BME280;6580;42.680;23.324;2023-04-27T07:32:05;95133.06;;;14.69;38.43
13027;BME280;6580;42.680;23.324;2023-04-27T07:34:51;95136.44;;;14.48;38.77
13027;BME280;6580;42.680;23.324;2023-04-27T07:37:36;95141.06;;;14.03;39.45
13027;BME280;6580;42.680;23.324;2023-04-27T07:40:23;95136.94;;;15.80;37.13
13027;BME280;6580;42.680;23.324;2023-04-27T07:43:08;95128.94;;;16.56;35.76
13027;BME280;6580;42.680;23.324;2023-04-27T07:45:55;95120.31;;;17.47;33.22
13027;BME280;6580;42.680;23.324;2023-04-27T07:48:42;95120.47;;;17.99;33.34
13027;BME280;6580;42.680;23.324;2023-04-27T07:51:28;95118.88;;;19.45;30.73
13027;BME280;6580;42.680;23.324;2023-04-27T07:54:17;95117.88;;;20.94;29.05
13027;BME280;6580;42.680;23.324;2023-04-27T07:57:07;95118.06;;;22.00;27.62
13027;BME280;6580;42.680;23.324;2023-04-27T07:59:52;95122.63;;;21.17;28.22
13027;BME280;6580;42.680;23.324;2023-04-27T08:02:38;95119.34;;;20.42;27.66
13027;BME280;6580;42.680;23.324;2023-04-27T08:05:25;95121.91;;;18.02;30.35
13027;BME280;6580;42.680;23.324;2023-04-27T08:08:10;95113.41;;;18.95;30.49
13027;BME280;6580;42.680;23.324;2023-04-27T08:10:56;95113.84;;;18.79;30.85
13027;BME280;6580;42.680;23.324;2023-04-27T08:13:41;95121.00;;;20.18;29.06
13027;BME280;6580;42.680;23.324;2023-04-27T08:16:29;95128.03;;;20.50;29.04
13027;BME280;6580;42.680;23.324;2023-04-27T08:19:15;95117.78;;;21.90;27.32
13027;BME280;6580;42.680;23.324;2023-04-27T08:22:02;95098.41;;;22.57;26.24
13027;BME280;6580;42.680;23.324;2023-04-27T08:24:48;95099.00;;;20.08;27.62
13027;BME280;6580;42.680;23.324;2023-04-27T08:27:36;95114.03;;;18.91;30.01
13027;BME280;6580;42.680;23.324;2023-04-27T08:30:24;95114.75;;;19.80;29.54
13027;BME280;6580;42.680;23.324;2023-04-27T08:33:09;95104.81;;;21.63;27.70
13027;BME280;6580;42.680;23.324;2023-04-27T08:35:56;95118.13;;;21.29;27.30
13027;BME280;6580;42.680;23.324;2023-04-27T08:38:46;95114.19;;;19.65;28.91
13027;BME280;6580;42.680;23.324;2023-04-27T08:41:31;95132.19;;;16.79;32.76
13027;BME280;6580;42.680;23.324;2023-04-27T08:44:17;95129.81;;;16.97;33.02
13027;BME280;6580;42.680;23.324;2023-04-27T08:47:03;95116.75;;;18.00;32.51
13027;BME280;6580;42.680;23.324;2023-04-27T08:49:49;95115.50;;;20.00;30.01
13027;BME280;6580;42.680;23.324;2023-04-27T08:52:36;95116.50;;;18.99;30.55
13027;BME280;6580;42.680;23.324;2023-04-27T08:55:23;95116.31;;;18.81;31.03
13027;BME280;6580;42.680;23.324;2023-04-27T08:58:09;95117.22;;;18.49;31.36
13027;BME280;6580;42.680;23.324;2023-04-27T09:00:54;95117.69;;;17.54;32.49
13027;BME280;6580;42.680;23.324;2023-04-27T09:03:40;95126.44;;;16.06;34.78
13027;BME280;6580;42.680;23.324;2023-04-27T09:06:29;95111.91;;;17.23;32.76
13027;BME280;6580;42.680;23.324;2023-04-27T09:09:23;95117.72;;;16.52;34.06
13027;BME280;6580;42.680;23.324;2023-04-27T09:12:17;95107.25;;;19.39;31.03
13027;BME280;6580;42.680;23.324;2023-04-27T09:15:04;95106.53;;;20.00;29.55
13027;BME280;6580;42.680;23.324;2023-04-27T09:17:54;95102.06;;;20.43;29.46
13027;BME280;6580;42.680;23.324;2023-04-27T09:20:44;95089.91;;;20.51;28.16
13027;BME280;6580;42.680;23.324;2023-04-27T09:23:31;95099.34;;;18.54;30.29
13027;BME280;6580;42.680;23.324;2023-04-27T09:26:18;95104.53;;;18.43;31.07
13027;BME280;6580;42.680;23.324;2023-04-27T09:29:06;95099.13;;;18.69;31.50
13027;BME280;6580;42.680;23.324;2023-04-27T09:31:56;95106.44;;;16.97;32.99
13027;BME280;6580;42.680;23.324;2023-04-27T09:34:43;95105.88;;;17.15;33.61
13027;BME280;6580;42.680;23.324;2023-04-27T09:37:28;95102.03;;;17.96;32.17
13027;BME280;6580;42.680;23.324;2023-04-27T09:40:15;95091.31;;;19.24;30.08
13027;BME280;6580;42.680;23.324;2023-04-27T09:43:02;95082.50;;;18.85;30.11
13027;BME280;6580;42.680;23.324;2023-04-27T09:45:50;95081.94;;;18.31;30.90
13027;BME280;6580;42.680;23.324;2023-04-27T09:48:37;95083.44;;;19.23;29.62
13027;BME280;6580;42.680;23.324;2023-04-27T09:51:26;95071.19;;;20.50;27.93
13027;BME280;6580;42.680;23.324;2023-04-27T09:54:14;95065.28;;;21.20;27.28
13027;BME280;6580;42.680;23.324;2023-04-27T09:57:09;95053.34;;;22.90;25.43
13027;BME280;6580;42.680;23.324;2023-04-27T10:00:05;95060.88;;;22.43;26.25
13027;BME280;6580;42.680;23.324;2023-04-27T10:03:04;95075.28;;;20.10;28.46
13027;BME280;6580;42.680;23.324;2023-04-27T10:09:20;95073.84;;;20.32;28.67
13027;BME280;6580;42.680;23.324;2023-04-27T10:12:18;95071.75;;;19.72;29.16
13027;BME280;6580;42.680;23.324;2023-04-27T10:15:14;95070.22;;;18.95;29.90
13027;BME280;6580;42.680;23.324;2023-04-27T10:18:04;95070.69;;;18.60;29.46
13027;BME280;6580;42.680;23.324;2023-04-27T10:20:50;95059.78;;;19.05;29.71
13027;BME280;6580;42.680;23.324;2023-04-27T10:23:44;95073.03;;;18.24;30.61
13027;BME280;6580;42.680;23.324;2023-04-27T10:26:30;95072.31;;;17.57;31.30
13027;BME280;6580;42.680;23.324;2023-04-27T10:29:17;95062.47;;;20.24;29.12
13027;BME280;6580;42.680;23.324;2023-04-27T10:32:08;95054.16;;;22.45;25.76
13027;BME280;6580;42.680;23.324;2023-04-27T10:35:03;95037.56;;;22.24;25.73
13027;BME280;6580;42.680;23.324;2023-04-27T10:37:50;95036.69;;;22.87;24.31
13027;BME280;6580;42.680;23.324;2023-04-27T10:40:37;95055.16;;;20.48;25.93
13027;BME280;6580;42.680;23.324;2023-04-27T10:43:24;95061.16;;;18.64;28.19
13027;BME280;6580;42.680;23.324;2023-04-27T10:46:12;95065.72;;;17.79;29.44
13027;BME280;6580;42.680;23.324;2023-04-27T10:48:57;95065.22;;;17.37;30.14
13027;BME280;6580;42.680;23.324;2023-04-27T10:51:45;95053.69;;;17.75;29.80
13027;BME280;6580;42.680;23.324;2023-04-27T10:54:32;95062.69;;;19.17;27.70
13027;BME280;6580;42.680;23.324;2023-04-27T10:57:18;95062.72;;;19.04;28.21
13027;BME280;6580;42.680;23.324;2023-04-27T11:00:05;95064.53;;;18.27;29.91
13027;BME280;6580;42.680;23.324;2023-04-27T11:02:53;95072.78;;;18.71;28.95
13027;BME280;6580;42.680;23.324;2023-04-27T11:05:40;95057.28;;;17.23;29.55
13027;BME280;6580;42.680;23.324;2023-04-27T11:08:28;95063.00;;;17.00;30.25
13027;BME280;6580;42.680;23.324;2023-04-27T11:11:15;95061.91;;;17.35;30.10
13027;BME280;6580;42.680;23.324;2023-04-27T11:14:00;95048.97;;;18.29;29.14
13027;BME280;6580;42.680;23.324;2023-04-27T11:16:47;95043.94;;;19.65;27.31
13027;BME280;6580;42.680;23.324;2023-04-27T11:19:43;95061.81;;;18.01;29.85
13027;BME280;6580;42.680;23.324;2023-04-27T11:22:28;95057.25;;;17.82;29.90
13027;BME280;6580;42.680;23.324;2023-04-27T11:25:26;95063.25;;;18.55;30.25
13027;BME280;6580;42.680;23.324;2023-04-27T11:28:16;95055.78;;;18.12;30.63
13027;BME280;6580;42.680;23.324;2023-04-27T11:31:04;95068.75;;;19.56;28.71
13027;BME280;6580;42.680;23.324;2023-04-27T11:33:52;95058.75;;;19.06;28.74
13027;BME280;6580;42.680;23.324;2023-04-27T11:36:37;95063.69;;;18.33;30.02
13027;BME280;6580;42.680;23.324;2023-04-27T11:39:25;95068.63;;;18.62;29.52
13027;BME280;6580;42.680;23.324;2023-04-27T11:42:18;95077.94;;;17.95;30.73
13027;BME280;6580;42.680;23.324;2023-04-27T11:45:05;95075.56;;;17.33;30.72
13027;BME280;6580;42.680;23.324;2023-04-27T11:47:52;95062.81;;;17.74;30.88
13027;BME280;6580;42.680;23.324;2023-04-27T11:50:38;95068.19;;;17.68;30.31
13027;BME280;6580;42.680;23.324;2023-04-27T11:53:31;95066.94;;;17.57;31.01
13027;BME280;6580;42.680;23.324;2023-04-27T11:56:17;95088.47;;;17.11;31.02
13027;BME280;6580;42.680;23.324;2023-04-27T11:59:17;95080.72;;;16.27;31.60
13027;BME280;6580;42.680;23.324;2023-04-27T12:02:11;95084.09;;;16.63;31.68
13027;BME280;6580;42.680;23.324;2023-04-27T12:04:57;95086.56;;;16.98;32.08
13027;BME280;6580;42.680;23.324;2023-04-27T12:07:43;95083.31;;;17.16;31.50
13027;BME280;6580;42.680;23.324;2023-04-27T12:10:29;95078.91;;;17.48;31.44
13027;BME280;6580;42.680;23.324;2023-04-27T12:13:15;95093.19;;;17.02;31.33
13027;BME280;6580;42.680;23.324;2023-04-27T12:16:02;95093.41;;;16.12;32.26
13027;BME280;6580;42.680;23.324;2023-04-27T12:18:48;95091.38;;;16.14;33.08
13027;BME280;6580;42.680;23.324;2023-04-27T12:21:33;95098.06;;;16.79;32.21
13027;BME280;6580;42.680;23.324;2023-04-27T12:24:19;95080.06;;;17.27;31.32
13027;BME280;6580;42.680;23.324;2023-04-27T12:27:04;95082.28;;;17.63;31.01
13027;BME280;6580;42.680;23.324;2023-04-27T12:29:50;95083.00;;;17.32;31.24
13027;BME280;6580;42.680;23.324;2023-04-27T12:32:39;95087.41;;;16.65;31.89
13027;BME280;6580;42.680;23.324;2023-04-27T12:35:25;95091.38;;;17.09;31.56
13027;BME280;6580;42.680;23.324;2023-04-27T12:38:14;95093.84;;;17.11;31.51
13027;BME280;6580;42.680;23.324;2023-04-27T12:41:00;95090.97;;;17.65;31.03
13027;BME280;6580;42.680;23.324;2023-04-27T12:43:46;95096.81;;;16.82;31.73
13027;BME280;6580;42.680;23.324;2023-04-27T12:46:32;95098.03;;;16.73;31.83
13027;BME280;6580;42.680;23.324;2023-04-27T12:49:23;95105.84;;;17.08;32.05
13027;BME280;6580;42.680;23.324;2023-04-27T12:52:09;95100.72;;;17.13;32.14
13027;BME280;6580;42.680;23.324;2023-04-27T12:54:55;95097.47;;;16.84;31.85
13027;BME280;6580;42.680;23.324;2023-04-27T12:57:42;95090.94;;;17.06;31.54
13027;BME280;6580;42.680;23.324;2023-04-27T13:00:29;95090.38;;;17.17;31.45
13027;BME280;6580;42.680;23.324;2023-04-27T13:03:18;95088.38;;;17.32;31.90
13027;BME280;6580;42.680;23.324;2023-04-27T13:06:05;95095.81;;;16.89;31.54
13027;BME280;6580;42.680;23.324;2023-04-27T13:08:51;95082.81;;;17.39;31.45
13027;BME280;6580;42.680;23.324;2023-04-27T13:11:37;95093.66;;;17.65;31.15
13027;BME280;6580;42.680;23.324;2023-04-27T13:14:23;95070.66;;;17.63;31.04
13027;BME280;6580;42.680;23.324;2023-04-27T13:17:12;95078.56;;;17.77;30.55
13027;BME280;6580;42.680;23.324;2023-04-27T13:19:58;95087.09;;;18.13;30.37
13027;BME280;6580;42.680;23.324;2023-04-27T13:22:45;95078.00;;;17.29;30.55
13027;BME280;6580;42.680;23.324;2023-04-27T13:25:31;95076.44;;;17.53;30.95
13027;BME280;6580;42.680;23.324;2023-04-27T13:28:17;95070.03;;;17.67;30.88
13027;BME280;6580;42.680;23.324;2023-04-27T13:31:03;95076.41;;;17.34;31.45
13027;BME280;6580;42.680;23.324;2023-04-27T13:33:54;95069.00;;;17.62;30.72
13027;BME280;6580;42.680;23.324;2023-04-27T13:36:39;95089.06;;;17.06;31.64
13027;BME280;6580;42.680;23.324;2023-04-27T13:39:27;95068.78;;;16.97;31.55
13027;BME280;6580;42.680;23.324;2023-04-27T13:42:13;95075.31;;;16.82;31.82
13027;BME280;6580;42.680;23.324;2023-04-27T13:44:58;95077.72;;;16.70;31.56
13027;BME280;6580;42.680;23.324;2023-04-27T13:47:44;95085.78;;;15.88;32.38
13027;BME280;6580;42.680;23.324;2023-04-27T13:50:30;95099.72;;;15.56;32.98
13027;BME280;6580;42.680;23.324;2023-04-27T13:53:17;95087.50;;;16.23;32.89
13027;BME280;6580;42.680;23.324;2023-04-27T13:56:04;95102.41;;;15.98;32.32
13027;BME280;6580;42.680;23.324;2023-04-27T13:58:50;95101.97;;;16.22;32.07
13027;BME280;6580;42.680;23.324;2023-04-27T14:01:37;95095.72;;;16.36;32.04
13027;BME280;6580;42.680;23.324;2023-04-27T14:04:23;95101.41;;;15.43;33.16
13027;BME280;6580;42.680;23.324;2023-04-27T14:07:08;95112.38;;;15.41;33.18
13027;BME280;6580;42.680;23.324;2023-04-27T14:09:54;95102.38;;;15.35;33.90
13027;BME280;6580;42.680;23.324;2023-04-27T14:12:41;95111.53;;;16.04;33.06
13027;BME280;6580;42.680;23.324;2023-04-27T14:15:28;95111.47;;;15.97;32.92
13027;BME280;6580;42.680;23.324;2023-04-27T14:18:13;95106.09;;;15.97;32.71
13027;BME280;6580;42.680;23.324;2023-04-27T14:20:58;95113.31;;;15.34;33.19
13027;BME280;6580;42.680;23.324;2023-04-27T14:23:44;95102.66;;;15.82;32.99
13027;BME280;6580;42.680;23.324;2023-04-27T14:26:29;95113.94;;;16.40;32.16
13027;BME280;6580;42.680;23.324;2023-04-27T14:29:16;95120.25;;;16.54;32.46
13027;BME280;6580;42.680;23.324;2023-04-27T14:32:06;95123.25;;;16.72;31.76
13027;BME280;6580;42.680;23.324;2023-04-27T14:34:53;95126.41;;;16.82;32.06
13027;BME280;6580;42.680;23.324;2023-04-27T14:37:39;95125.63;;;16.54;31.96
13027;BME280;6580;42.680;23.324;2023-04-27T14:40:24;95134.66;;;16.46;31.40
13027;BME280;6580;42.680;23.324;2023-04-27T14:43:10;95132.88;;;16.60;31.41
13027;BME280;6580;42.680;23.324;2023-04-27T14:46:02;95137.69;;;15.95;32.72
13027;BME280;6580;42.680;23.324;2023-04-27T14:48:50;95141.50;;;15.65;32.71
13027;BME280;6580;42.680;23.324;2023-04-27T14:51:36;95143.00;;;15.68;32.68
13027;BME280;6580;42.680;23.324;2023-04-27T14:54:22;95141.75;;;15.49;32.56